Portada
METAR-TAF:

METAR-TAF

Aeroports :

Dakar, Senegal

latitud: 14-44N, longitud: 017-30W, altitud: 27 m

Observació

L'informe es va fer fa 43 minuts, a les 03:00 UTC
Vent 6 kt del Nord
Temperatura 24°C
Humitat 78%
Pressió 1013 hPa
Visibilitat 10 km o més
sense núvols per sota de 1500 mi sense presència de cumulonimbus.

METAR: GOOY 210300Z 36006KT CAVOK 24/20 Q1013

Hora: 03:43 (03:43 UTC)

Pronòstic

L'informe es va fer fa 4 hores i 13 minuts, a les 23:30 UTC
Pronòstic vàlid del 21 a les 00 UTC al 22 a les 06 UTC
Vent 10 kt del Nord
Visibilitat 10 km o més
sense núvols per sota de 1500 mi sense presència de cumulonimbus.

TAF: GOOY 202330Z 2100/2206 01010KT CAVOK

Observacions i pronòstics meteorològics de més de 4000 aeroports (METAR i TAF).

Les estacions disponibles són els punts grocs i vermells al mapa.

Posi el ratolí al punt desitjat per veure el nom de l'estació.

Feu clic per veure les observacions i els pronòstics meteorològics.

Per canviar el mapa: feu clic els botons verds amb una creu de color negre per apropar; al botó verd amb un guió per allunyar la imatge; o en les fletxes verdes per a mapes adjacents.


METAR-TAF: